SXS5NW EDDC-LTAI
Flight info
| Callsign | SXS5NW |
|---|---|
| Flight time | N/A |
| Altitude | 35000 |
| Route | DEKOV6E DEKOV DCT EVIKU DCT VLM DCT NAVTI DCT BEGLA DCT SVR DCT BABIT DCT NIVIS DCT BGD DCT NEPOS DCT NISVA DCT USALI DCT RODIP DCT BELGI UN131 KOZLU |
| Aircraft | B738/M-SDE2E3FGHIRWXY/LB1 |
Departure
| Time | 2026-04-29 13:36 |
|---|---|
| Airport | Dresden Airport (EDDC) |
Arrival
| Time | N/A |
|---|---|
| Airport | Antalya International Airport (LTAI) |
| Time | Latitude | Longitude | Altitude | Speed | Heading |
|---|---|---|---|---|---|
| 2026-04-29 13:16 | 51.12658 | 13.76479 | 752 ft | 0 kts | 221° |
| 2026-04-29 13:29 | 51.12671 | 13.76497 | 749 ft | 4 kts | 221° |
| 2026-04-29 13:29 | 51.12687 | 13.76519 | 749 ft | 4 kts | 225° |
| 2026-04-29 13:30 | 51.12700 | 13.76552 | 749 ft | 4 kts | 272° |
| 2026-04-29 13:30 | 51.12691 | 13.76584 | 747 ft | 4 kts | 311° |
| 2026-04-29 13:30 | 51.12679 | 13.76607 | 748 ft | 0 kts | 311° |
| 2026-04-29 13:32 | 51.12684 | 13.76597 | 749 ft | 3 kts | 311° |
| 2026-04-29 13:32 | 51.12713 | 13.76544 | 748 ft | 8 kts | 310° |
| 2026-04-29 13:32 | 51.12744 | 13.76466 | 753 ft | 8 kts | 273° |
| 2026-04-29 13:32 | 51.12707 | 13.76400 | 753 ft | 8 kts | 220° |
| 2026-04-29 13:33 | 51.12665 | 13.76343 | 753 ft | 8 kts | 220° |
| 2026-04-29 13:33 | 51.12620 | 13.76280 | 753 ft | 9 kts | 221° |
| 2026-04-29 13:33 | 51.12620 | 13.76215 | 757 ft | 6 kts | 302° |
| 2026-04-29 13:33 | 51.12617 | 13.76154 | 756 ft | 6 kts | 228° |
| 2026-04-29 13:34 | 51.12585 | 13.76108 | 758 ft | 6 kts | 220° |
| 2026-04-29 13:34 | 51.12547 | 13.76056 | 756 ft | 9 kts | 221° |
| 2026-04-29 13:34 | 51.12495 | 13.75983 | 758 ft | 11 kts | 221° |
| 2026-04-29 13:34 | 51.12427 | 13.75889 | 762 ft | 14 kts | 221° |
| 2026-04-29 13:35 | 51.12371 | 13.75756 | 763 ft | 16 kts | 281° |
| 2026-04-29 13:35 | 51.12424 | 13.75581 | 763 ft | 19 kts | 301° |
| 2026-04-29 13:35 | 51.12527 | 13.75547 | 762 ft | 18 kts | 39° |
| 2026-04-29 13:35 | 51.12713 | 13.75806 | 762 ft | 68 kts | 40° |
| 2026-04-29 13:36 | 51.13244 | 13.76537 | 747 ft | 132 kts | 41° |
| 2026-04-29 13:36 | 51.14096 | 13.77736 | 950 ft | 169 kts | 43° |
| 2026-04-29 13:36 | 51.14995 | 13.79020 | 1948 ft | 165 kts | 42° |
| 2026-04-29 13:36 | 51.15925 | 13.80330 | 2485 ft | 186 kts | 41° |
| 2026-04-29 13:37 | 51.17014 | 13.81840 | 2736 ft | 211 kts | 41° |
| 2026-04-29 13:37 | 51.18151 | 13.83408 | 3305 ft | 217 kts | 42° |
| 2026-04-29 13:37 | 51.19009 | 13.85466 | 3713 ft | 237 kts | 77° |
| 2026-04-29 13:37 | 51.18849 | 13.88089 | 4409 ft | 248 kts | 110° |
| 2026-04-29 13:38 | 51.17848 | 13.90370 | 5223 ft | 259 kts | 134° |
| 2026-04-29 13:38 | 51.16416 | 13.92175 | 6031 ft | 264 kts | 141° |
| 2026-04-29 13:38 | 51.14893 | 13.93841 | 6875 ft | 267 kts | 142° |
| 2026-04-29 13:38 | 51.13337 | 13.95509 | 7575 ft | 273 kts | 142° |
| 2026-04-29 13:39 | 51.11742 | 13.97230 | 8244 ft | 280 kts | 142° |
| 2026-04-29 13:39 | 51.10121 | 13.98994 | 8942 ft | 286 kts | 142° |
| 2026-04-29 13:39 | 51.08465 | 14.00812 | 9639 ft | 292 kts | 141° |
| 2026-04-29 13:39 | 51.06780 | 14.02671 | 10336 ft | 298 kts | 141° |
| 2026-04-29 13:40 | 51.05052 | 14.04587 | 10802 ft | 312 kts | 141° |
| 2026-04-29 13:40 | 51.03202 | 14.06644 | 10966 ft | 335 kts | 142° |
| 2026-04-29 13:40 | 51.01233 | 14.08834 | 11165 ft | 356 kts | 142° |
| 2026-04-29 13:40 | 50.99169 | 14.11123 | 11629 ft | 366 kts | 142° |
| 2026-04-29 13:41 | 50.97061 | 14.13457 | 12298 ft | 370 kts | 142° |
| 2026-04-29 13:41 | 50.94942 | 14.15802 | 13010 ft | 374 kts | 142° |
| 2026-04-29 13:41 | 50.92793 | 14.18179 | 13620 ft | 379 kts | 142° |
| 2026-04-29 13:41 | 50.90619 | 14.20582 | 14277 ft | 383 kts | 143° |
| 2026-04-29 13:42 | 50.88340 | 14.22813 | 14906 ft | 389 kts | 150° |
| 2026-04-29 13:42 | 50.85888 | 14.24707 | 15396 ft | 397 kts | 153° |
| 2026-04-29 13:42 | 50.83360 | 14.26549 | 15948 ft | 402 kts | 153° |
| 2026-04-29 13:42 | 50.80806 | 14.28393 | 16546 ft | 405 kts | 153° |
| 2026-04-29 13:43 | 50.78235 | 14.30263 | 17125 ft | 409 kts | 153° |
| 2026-04-29 13:43 | 50.75635 | 14.32174 | 17656 ft | 415 kts | 153° |
| 2026-04-29 13:43 | 50.73009 | 14.34119 | 18206 ft | 419 kts | 153° |
| 2026-04-29 13:43 | 50.70358 | 14.36093 | 18756 ft | 423 kts | 153° |
| 2026-04-29 13:44 | 50.67690 | 14.38082 | 19230 ft | 426 kts | 153° |
| 2026-04-29 13:44 | 50.65007 | 14.40082 | 19809 ft | 427 kts | 153° |
| 2026-04-29 13:44 | 50.62312 | 14.42088 | 20291 ft | 430 kts | 153° |
| 2026-04-29 13:44 | 50.59595 | 14.44108 | 20750 ft | 434 kts | 153° |
| 2026-04-29 13:45 | 50.56847 | 14.46148 | 21207 ft | 438 kts | 153° |
| 2026-04-29 13:45 | 50.54081 | 14.48198 | 21675 ft | 441 kts | 153° |
| 2026-04-29 13:45 | 50.51293 | 14.50263 | 22134 ft | 444 kts | 152° |
| 2026-04-29 13:45 | 50.48619 | 14.52240 | 22602 ft | 448 kts | 153° |
| 2026-04-29 13:46 | 50.45783 | 14.54333 | 22946 ft | 453 kts | 153° |
| 2026-04-29 13:46 | 50.42904 | 14.56409 | 23381 ft | 457 kts | 154° |
| 2026-04-29 13:46 | 50.39999 | 14.58457 | 23893 ft | 457 kts | 154° |
| 2026-04-29 13:46 | 50.37095 | 14.60487 | 24314 ft | 458 kts | 154° |
| 2026-04-29 13:47 | 50.34176 | 14.62523 | 24672 ft | 461 kts | 155° |
| 2026-04-29 13:47 | 50.31240 | 14.64573 | 25018 ft | 464 kts | 155° |
| 2026-04-29 13:47 | 50.28283 | 14.66640 | 25361 ft | 465 kts | 155° |
| 2026-04-29 13:47 | 50.25322 | 14.68712 | 25719 ft | 467 kts | 155° |
| 2026-04-29 13:48 | 50.22383 | 14.70768 | 26074 ft | 469 kts | 155° |
| 2026-04-29 13:48 | 50.19401 | 14.72852 | 26431 ft | 471 kts | 155° |
| 2026-04-29 13:48 | 50.16404 | 14.74944 | 26768 ft | 473 kts | 155° |
| 2026-04-29 13:48 | 50.13392 | 14.77044 | 27105 ft | 475 kts | 155° |
| 2026-04-29 13:49 | 50.10373 | 14.79146 | 27459 ft | 477 kts | 155° |
| 2026-04-29 13:49 | 50.08316 | 14.80576 | 27569 ft | 481 kts | 155° |
| 2026-04-29 13:49 | 50.05243 | 14.82710 | 27786 ft | 485 kts | 155° |
| 2026-04-29 13:49 | 50.02199 | 14.84820 | 28129 ft | 486 kts | 155° |
| 2026-04-29 13:50 | 49.99112 | 14.86958 | 28478 ft | 487 kts | 155° |
| 2026-04-29 13:50 | 49.95974 | 14.89127 | 28797 ft | 488 kts | 156° |
| 2026-04-29 13:50 | 49.92864 | 14.91274 | 29060 ft | 490 kts | 156° |
| 2026-04-29 13:50 | 49.89780 | 14.93401 | 29317 ft | 492 kts | 156° |
| 2026-04-29 13:51 | 49.86653 | 14.95555 | 29673 ft | 492 kts | 156° |
| 2026-04-29 13:51 | 49.83520 | 14.97709 | 29995 ft | 493 kts | 156° |
| 2026-04-29 13:51 | 49.80390 | 14.99859 | 30357 ft | 492 kts | 156° |
| 2026-04-29 13:51 | 49.77260 | 15.02006 | 30698 ft | 491 kts | 156° |
| 2026-04-29 13:52 | 49.74146 | 15.04138 | 31018 ft | 490 kts | 156° |
| 2026-04-29 13:52 | 49.71058 | 15.06358 | 31293 ft | 491 kts | 152° |
| 2026-04-29 13:52 | 49.68164 | 15.09193 | 31401 ft | 495 kts | 141° |
| 2026-04-29 13:52 | 49.65480 | 15.12541 | 31665 ft | 494 kts | 140° |
| 2026-04-29 13:53 | 49.62844 | 15.15905 | 32083 ft | 490 kts | 140° |
| 2026-04-29 13:53 | 49.60228 | 15.19245 | 32479 ft | 487 kts | 140° |
| 2026-04-29 13:53 | 49.57609 | 15.22562 | 32705 ft | 488 kts | 141° |
| 2026-04-29 13:53 | 49.54971 | 15.25872 | 32908 ft | 489 kts | 141° |
| 2026-04-29 13:54 | 49.52325 | 15.29164 | 33166 ft | 489 kts | 141° |
| 2026-04-29 13:54 | 49.49678 | 15.32441 | 33472 ft | 488 kts | 141° |
| 2026-04-29 13:54 | 49.47031 | 15.35706 | 33766 ft | 487 kts | 141° |
| 2026-04-29 13:54 | 49.44393 | 15.38954 | 33988 ft | 488 kts | 141° |
| 2026-04-29 13:55 | 49.39044 | 15.45527 | 34237 ft | 493 kts | 141° |
| 2026-04-29 13:55 | 49.36369 | 15.48809 | 34519 ft | 490 kts | 142° |
| 2026-04-29 13:55 | 49.33717 | 15.52059 | 34820 ft | 488 kts | 142° |
| 2026-04-29 13:56 | 49.31065 | 15.55304 | 34995 ft | 488 kts | 142° |
| 2026-04-29 13:56 | 49.28407 | 15.58553 | 35125 ft | 489 kts | 142° |
| 2026-04-29 13:56 | 49.25744 | 15.61804 | 35247 ft | 491 kts | 142° |
| 2026-04-29 13:56 | 49.23072 | 15.65060 | 35266 ft | 493 kts | 142° |
| 2026-04-29 13:57 | 49.17714 | 15.71575 | 35276 ft | 491 kts | 142° |
| 2026-04-29 13:57 | 49.12368 | 15.78059 | 35269 ft | 490 kts | 142° |
| 2026-04-29 13:58 | 49.06986 | 15.84568 | 35262 ft | 490 kts | 143° |
| 2026-04-29 13:58 | 49.01644 | 15.91009 | 35267 ft | 490 kts | 143° |
| 2026-04-29 13:59 | 48.96293 | 15.97443 | 35262 ft | 490 kts | 143° |
| 2026-04-29 13:59 | 48.90934 | 16.03870 | 35266 ft | 491 kts | 143° |
| 2026-04-29 14:00 | 48.85561 | 16.10302 | 35265 ft | 492 kts | 143° |
| 2026-04-29 14:00 | 48.80173 | 16.16723 | 35255 ft | 493 kts | 144° |
| 2026-04-29 14:01 | 48.74712 | 16.22983 | 35266 ft | 492 kts | 148° |
| 2026-04-29 14:01 | 48.68973 | 16.28643 | 35272 ft | 492 kts | 150° |
| 2026-04-29 14:02 | 48.63173 | 16.34195 | 35272 ft | 494 kts | 150° |
| 2026-04-29 14:02 | 48.57422 | 16.39771 | 35270 ft | 495 kts | 150° |
| 2026-04-29 14:03 | 48.51644 | 16.45422 | 35264 ft | 495 kts | 150° |
| 2026-04-29 14:03 | 48.45862 | 16.51077 | 35264 ft | 495 kts | 150° |
| 2026-04-29 14:04 | 48.40075 | 16.56719 | 35256 ft | 495 kts | 150° |
| 2026-04-29 14:04 | 48.34280 | 16.62347 | 35256 ft | 496 kts | 150° |
| 2026-04-29 14:05 | 48.28485 | 16.67959 | 35227 ft | 496 kts | 151° |
| 2026-04-29 14:05 | 48.22691 | 16.73556 | 35238 ft | 495 kts | 151° |
| 2026-04-29 14:06 | 48.16889 | 16.79145 | 35244 ft | 496 kts | 151° |
| 2026-04-29 14:06 | 48.11078 | 16.84727 | 35239 ft | 496 kts | 151° |
| 2026-04-29 14:07 | 48.05260 | 16.90302 | 35227 ft | 496 kts | 151° |
| 2026-04-29 14:07 | 47.99440 | 16.95862 | 35221 ft | 496 kts | 151° |
| 2026-04-29 14:08 | 47.93617 | 17.01411 | 35229 ft | 496 kts | 151° |
| 2026-04-29 14:08 | 47.87793 | 17.06948 | 35229 ft | 496 kts | 151° |
| 2026-04-29 14:09 | 47.81973 | 17.12477 | 35239 ft | 497 kts | 150° |
| 2026-04-29 14:09 | 47.76243 | 17.18260 | 35210 ft | 498 kts | 149° |
| 2026-04-29 14:10 | 47.70552 | 17.24154 | 35220 ft | 498 kts | 149° |
| 2026-04-29 14:10 | 47.64856 | 17.30002 | 35219 ft | 498 kts | 149° |
| 2026-04-29 14:11 | 47.59142 | 17.35809 | 35213 ft | 498 kts | 150° |
| 2026-04-29 14:11 | 47.53414 | 17.41601 | 35224 ft | 498 kts | 150° |
| 2026-04-29 14:12 | 47.47685 | 17.47378 | 35214 ft | 498 kts | 150° |
| 2026-04-29 14:12 | 47.41957 | 17.53143 | 35213 ft | 499 kts | 150° |
| 2026-04-29 14:13 | 47.36221 | 17.58900 | 35214 ft | 498 kts | 150° |
| 2026-04-29 14:13 | 47.30478 | 17.64650 | 35214 ft | 498 kts | 150° |
| 2026-04-29 14:14 | 47.24736 | 17.70382 | 35205 ft | 498 kts | 150° |
| 2026-04-29 14:14 | 47.18989 | 17.76105 | 35209 ft | 498 kts | 150° |
| 2026-04-29 14:15 | 47.13247 | 17.81807 | 35215 ft | 499 kts | 150° |
| 2026-04-29 14:15 | 47.07493 | 17.87506 | 35212 ft | 499 kts | 150° |
| 2026-04-29 14:16 | 47.01749 | 17.93180 | 35190 ft | 500 kts | 150° |
| 2026-04-29 14:16 | 46.95991 | 17.98855 | 35215 ft | 499 kts | 151° |
| 2026-04-29 14:17 | 46.90178 | 18.04568 | 35214 ft | 500 kts | 151° |
| 2026-04-29 14:17 | 46.84404 | 18.10229 | 35218 ft | 500 kts | 151° |
| 2026-04-29 14:18 | 46.78578 | 18.15795 | 35215 ft | 500 kts | 153° |
| 2026-04-29 14:18 | 46.72686 | 18.21172 | 35208 ft | 500 kts | 154° |
| 2026-04-29 14:19 | 46.66778 | 18.26540 | 35216 ft | 501 kts | 153° |
| 2026-04-29 14:19 | 46.60868 | 18.31932 | 35215 ft | 502 kts | 153° |
| 2026-04-29 14:20 | 46.54950 | 18.37337 | 35215 ft | 502 kts | 153° |
| 2026-04-29 14:20 | 46.49032 | 18.42730 | 35212 ft | 502 kts | 153° |
| 2026-04-29 14:21 | 46.43110 | 18.48109 | 35217 ft | 502 kts | 153° |
| 2026-04-29 14:21 | 46.37175 | 18.53486 | 35207 ft | 503 kts | 153° |
| 2026-04-29 14:22 | 46.31242 | 18.58846 | 35214 ft | 503 kts | 154° |
| 2026-04-29 14:22 | 46.25308 | 18.64195 | 35176 ft | 503 kts | 154° |
| 2026-04-29 14:23 | 46.19377 | 18.69527 | 35202 ft | 502 kts | 154° |
| 2026-04-29 14:23 | 46.13461 | 18.74832 | 35208 ft | 501 kts | 154° |
| 2026-04-29 14:24 | 46.08493 | 18.79275 | 35208 ft | 501 kts | 154° |
| 2026-04-29 14:24 | 46.01604 | 18.85423 | 35184 ft | 501 kts | 154° |
| 2026-04-29 14:25 | 45.95690 | 18.90687 | 35205 ft | 500 kts | 154° |
| 2026-04-29 14:25 | 45.90906 | 18.95516 | 35198 ft | 506 kts | 143° |
| 2026-04-29 14:26 | 45.85672 | 19.02294 | 35203 ft | 508 kts | 141° |
| 2026-04-29 14:26 | 45.80463 | 19.09147 | 35199 ft | 507 kts | 142° |
| 2026-04-29 14:27 | 45.75251 | 19.15867 | 35177 ft | 507 kts | 142° |
| 2026-04-29 14:28 | 45.67308 | 19.25957 | 35206 ft | 508 kts | 142° |
| 2026-04-29 14:28 | 45.62009 | 19.32660 | 35179 ft | 509 kts | 142° |
| 2026-04-29 14:29 | 45.56709 | 19.39358 | 35191 ft | 508 kts | 143° |
| 2026-04-29 14:29 | 45.51411 | 19.46037 | 35194 ft | 508 kts | 143° |
| 2026-04-29 14:30 | 45.46120 | 19.52689 | 35187 ft | 507 kts | 143° |
| 2026-04-29 14:30 | 45.40832 | 19.59319 | 35187 ft | 507 kts | 143° |
| 2026-04-29 14:31 | 45.35541 | 19.65936 | 35193 ft | 506 kts | 143° |
| 2026-04-29 14:31 | 45.30249 | 19.72539 | 35201 ft | 506 kts | 143° |
| 2026-04-29 14:32 | 45.24958 | 19.79122 | 35193 ft | 506 kts | 143° |
| 2026-04-29 14:32 | 45.19626 | 19.85643 | 35181 ft | 505 kts | 143° |
| 2026-04-29 14:33 | 45.14281 | 19.92111 | 35180 ft | 505 kts | 144° |
| 2026-04-29 14:33 | 45.08936 | 19.98575 | 35196 ft | 505 kts | 143° |
| 2026-04-29 14:34 | 45.03601 | 20.05023 | 35177 ft | 506 kts | 143° |
| 2026-04-29 14:34 | 44.98243 | 20.11487 | 35187 ft | 506 kts | 143° |
| 2026-04-29 14:35 | 44.92884 | 20.17933 | 35186 ft | 506 kts | 144° |
| 2026-04-29 14:35 | 44.87521 | 20.24370 | 35186 ft | 506 kts | 144° |
| 2026-04-29 14:36 | 44.82149 | 20.30807 | 35189 ft | 507 kts | 143° |
| 2026-04-29 14:36 | 44.77050 | 20.37707 | 35188 ft | 510 kts | 138° |
| 2026-04-29 14:37 | 44.72081 | 20.44835 | 35180 ft | 510 kts | 138° |
| 2026-04-29 14:37 | 44.67101 | 20.51942 | 35173 ft | 510 kts | 138° |
| 2026-04-29 14:38 | 44.62063 | 20.59035 | 35164 ft | 509 kts | 139° |
| 2026-04-29 14:38 | 44.57043 | 20.66053 | 35168 ft | 508 kts | 139° |
| 2026-04-29 14:39 | 44.52043 | 20.73024 | 35159 ft | 507 kts | 139° |
| 2026-04-29 14:39 | 44.47000 | 20.80041 | 35157 ft | 506 kts | 139° |
| 2026-04-29 14:40 | 44.42000 | 20.86982 | 35146 ft | 506 kts | 139° |
| 2026-04-29 14:40 | 44.37010 | 20.93893 | 35166 ft | 505 kts | 139° |
| 2026-04-29 14:41 | 44.32028 | 21.00776 | 35174 ft | 504 kts | 139° |
| 2026-04-29 14:41 | 44.27034 | 21.07655 | 35167 ft | 504 kts | 139° |
| 2026-04-29 14:42 | 44.22037 | 21.14523 | 35165 ft | 504 kts | 139° |
| 2026-04-29 14:42 | 44.17038 | 21.21377 | 35166 ft | 504 kts | 139° |
| 2026-04-29 14:43 | 44.12052 | 21.28196 | 35152 ft | 505 kts | 139° |
| 2026-04-29 14:43 | 44.07014 | 21.35071 | 35158 ft | 505 kts | 139° |
| 2026-04-29 14:44 | 44.01986 | 21.41914 | 35148 ft | 506 kts | 139° |
| 2026-04-29 14:44 | 43.96940 | 21.48745 | 35149 ft | 507 kts | 139° |
| 2026-04-29 14:45 | 43.91872 | 21.55553 | 35141 ft | 507 kts | 140° |
| 2026-04-29 14:45 | 43.86799 | 21.62355 | 35126 ft | 507 kts | 140° |
| 2026-04-29 14:46 | 43.81747 | 21.69118 | 35124 ft | 507 kts | 139° |
| 2026-04-29 14:46 | 43.76671 | 21.75900 | 35122 ft | 507 kts | 140° |
| 2026-04-29 14:47 | 43.71603 | 21.82653 | 35122 ft | 506 kts | 140° |
| 2026-04-29 14:47 | 43.66537 | 21.89387 | 35116 ft | 505 kts | 140° |
| 2026-04-29 14:48 | 43.61478 | 21.96095 | 35079 ft | 504 kts | 140° |
| 2026-04-29 14:48 | 43.56426 | 22.02778 | 35094 ft | 502 kts | 140° |
| 2026-04-29 14:49 | 43.51387 | 22.09427 | 35096 ft | 500 kts | 140° |
| 2026-04-29 14:49 | 43.46367 | 22.16035 | 35099 ft | 499 kts | 140° |
| 2026-04-29 14:50 | 43.41342 | 22.22632 | 35101 ft | 499 kts | 140° |
| 2026-04-29 14:50 | 43.36314 | 22.29217 | 35101 ft | 500 kts | 140° |
| 2026-04-29 14:51 | 43.31268 | 22.35807 | 35083 ft | 500 kts | 140° |
| 2026-04-29 14:51 | 43.26225 | 22.42384 | 35088 ft | 500 kts | 140° |
| 2026-04-29 14:52 | 43.21172 | 22.48958 | 35086 ft | 501 kts | 140° |
| 2026-04-29 14:52 | 43.16096 | 22.55543 | 35071 ft | 502 kts | 140° |
| 2026-04-29 14:53 | 43.11040 | 22.62087 | 35073 ft | 503 kts | 140° |
| 2026-04-29 14:53 | 43.05953 | 22.68656 | 35058 ft | 503 kts | 140° |
| 2026-04-29 14:54 | 43.00859 | 22.75222 | 35066 ft | 503 kts | 140° |
| 2026-04-29 14:54 | 42.95765 | 22.81768 | 35062 ft | 503 kts | 140° |
| 2026-04-29 14:55 | 42.90649 | 22.88316 | 35056 ft | 504 kts | 140° |
| 2026-04-29 14:55 | 42.85537 | 22.94845 | 35041 ft | 504 kts | 140° |
| 2026-04-29 14:56 | 42.80423 | 23.01365 | 35050 ft | 503 kts | 140° |
| 2026-04-29 14:56 | 42.75312 | 23.07867 | 35068 ft | 502 kts | 140° |
| 2026-04-29 14:57 | 42.70170 | 23.14392 | 35061 ft | 502 kts | 140° |
| 2026-04-29 14:57 | 42.65059 | 23.20863 | 35071 ft | 501 kts | 140° |
| 2026-04-29 14:58 | 42.59956 | 23.27307 | 35069 ft | 501 kts | 140° |
| 2026-04-29 14:58 | 42.54853 | 23.33738 | 35040 ft | 500 kts | 140° |
| 2026-04-29 14:59 | 42.49770 | 23.40128 | 35070 ft | 498 kts | 140° |
| 2026-04-29 14:59 | 42.45550 | 23.45423 | 35067 ft | 497 kts | 140° |
| 2026-04-29 15:00 | 42.40478 | 23.51772 | 35072 ft | 496 kts | 140° |
| 2026-04-29 15:00 | 42.35406 | 23.58109 | 35079 ft | 496 kts | 140° |
| 2026-04-29 15:01 | 42.30365 | 23.64392 | 35077 ft | 496 kts | 140° |
| 2026-04-29 15:01 | 42.25256 | 23.70666 | 35084 ft | 495 kts | 141° |
| 2026-04-29 15:02 | 42.20122 | 23.76885 | 35070 ft | 496 kts | 141° |
| 2026-04-29 15:02 | 42.14990 | 23.83097 | 35075 ft | 496 kts | 141° |
| 2026-04-29 15:03 | 42.09857 | 23.89311 | 35056 ft | 496 kts | 141° |
| 2026-04-29 15:03 | 42.04731 | 23.95507 | 35065 ft | 495 kts | 141° |
| 2026-04-29 15:04 | 41.99598 | 24.01698 | 35069 ft | 495 kts | 141° |
| 2026-04-29 15:04 | 41.94470 | 24.07866 | 35068 ft | 496 kts | 141° |
| 2026-04-29 15:05 | 41.89317 | 24.14052 | 35070 ft | 496 kts | 141° |
| 2026-04-29 15:05 | 41.84169 | 24.20218 | 35070 ft | 496 kts | 141° |
| 2026-04-29 15:06 | 41.79020 | 24.26372 | 35077 ft | 495 kts | 141° |
| 2026-04-29 15:06 | 41.73875 | 24.32511 | 35068 ft | 494 kts | 141° |
| 2026-04-29 15:07 | 41.68737 | 24.38624 | 35072 ft | 493 kts | 141° |
| 2026-04-29 15:07 | 41.63614 | 24.44702 | 35082 ft | 493 kts | 141° |
| 2026-04-29 15:08 | 41.58475 | 24.50786 | 35069 ft | 494 kts | 141° |
| 2026-04-29 15:08 | 41.53333 | 24.56864 | 35075 ft | 494 kts | 141° |
| 2026-04-29 15:09 | 41.48181 | 24.62942 | 35073 ft | 494 kts | 141° |
| 2026-04-29 15:09 | 41.43015 | 24.69023 | 35085 ft | 495 kts | 141° |
| 2026-04-29 15:10 | 41.38003 | 24.75258 | 35090 ft | 497 kts | 138° |
| 2026-04-29 15:10 | 41.33101 | 24.81741 | 35085 ft | 497 kts | 137° |
| 2026-04-29 15:11 | 41.28194 | 24.88228 | 35081 ft | 497 kts | 137° |
| 2026-04-29 15:11 | 41.23266 | 24.94666 | 35067 ft | 496 kts | 138° |
| 2026-04-29 15:12 | 41.18339 | 25.01057 | 35082 ft | 495 kts | 138° |
| 2026-04-29 15:12 | 41.15215 | 25.05099 | 35081 ft | 495 kts | 138° |
| 2026-04-29 15:13 | 41.15051 | 25.05311 | 35082 ft | 495 kts | 138° |
| 2026-04-29 15:13 | 41.14969 | 25.05417 | 35081 ft | 495 kts | 138° |
| 2026-04-29 15:14 | 41.14887 | 25.05523 | 35081 ft | 495 kts | 138° |
| 2026-04-29 15:15 | 41.14805 | 25.05630 | 35078 ft | 495 kts | 138° |
| 2026-04-29 15:15 | 41.13100 | 25.07856 | 35078 ft | 494 kts | 138° |
| 2026-04-29 15:16 | 41.12709 | 25.08364 | 35077 ft | 494 kts | 138° |
| 2026-04-29 15:17 | 41.10463 | 25.11273 | 35082 ft | 494 kts | 138° |
| 2026-04-29 15:17 | 41.09559 | 25.12437 | 35082 ft | 493 kts | 138° |
| 2026-04-29 15:18 | 41.09178 | 25.12927 | 35083 ft | 493 kts | 138° |
| 2026-04-29 15:18 | 41.08836 | 25.13367 | 35081 ft | 493 kts | 138° |
| 2026-04-29 15:19 | 41.08345 | 25.13997 | 35081 ft | 493 kts | 138° |
| 2026-04-29 15:19 | 41.08180 | 25.14207 | 35078 ft | 493 kts | 138° |
| 2026-04-29 15:20 | 41.07440 | 25.15158 | 35082 ft | 493 kts | 138° |
| 2026-04-29 15:20 | 41.07090 | 25.15613 | 35083 ft | 493 kts | 138° |
| 2026-04-29 15:21 | 41.06828 | 25.15955 | 35086 ft | 493 kts | 138° |
| 2026-04-29 15:21 | 41.06232 | 25.16724 | 35085 ft | 493 kts | 139° |
| 2026-04-29 15:22 | 41.06040 | 25.16966 | 35085 ft | 493 kts | 139° |
| 2026-04-29 15:22 | 41.05958 | 25.17070 | 35084 ft | 492 kts | 140° |
| 2026-04-29 15:23 | 41.05695 | 25.17397 | 35081 ft | 492 kts | 140° |
| 2026-04-29 15:23 | 41.05043 | 25.18171 | 35065 ft | 492 kts | 142° |
| 2026-04-29 15:24 | 41.04762 | 25.18488 | 35051 ft | 492 kts | 142° |
| 2026-04-29 15:24 | 41.04588 | 25.18682 | 35046 ft | 492 kts | 142° |
| 2026-04-29 15:25 | 41.04501 | 25.18779 | 35043 ft | 492 kts | 142° |
| 2026-04-29 15:25 | 41.04241 | 25.19072 | 35041 ft | 492 kts | 140° |
| 2026-04-29 15:26 | 41.03587 | 25.19862 | 35020 ft | 494 kts | 137° |
| 2026-04-29 15:26 | 41.03505 | 25.19968 | 35014 ft | 494 kts | 136° |
| 2026-04-29 15:27 | 41.03012 | 25.20629 | 34998 ft | 495 kts | 136° |
| 2026-04-29 15:27 | 41.02684 | 25.21082 | 34992 ft | 495 kts | 135° |
| 2026-04-29 15:28 | 41.02527 | 25.21303 | 34997 ft | 495 kts | 134° |
| 2026-04-29 15:28 | 41.01969 | 25.22118 | 35011 ft | 494 kts | 133° |
| 2026-04-29 15:29 | 41.01893 | 25.22231 | 35022 ft | 494 kts | 134° |
| 2026-04-29 15:30 | 41.01195 | 25.23243 | 35076 ft | 492 kts | 135° |
| 2026-04-29 15:30 | 41.00953 | 25.23588 | 35093 ft | 491 kts | 134° |
| 2026-04-29 15:31 | 41.00799 | 25.23810 | 35095 ft | 491 kts | 134° |
| 2026-04-29 15:31 | 41.00647 | 25.24034 | 35101 ft | 491 kts | 132° |
| 2026-04-29 15:32 | 41.00186 | 25.24761 | 35098 ft | 492 kts | 128° |
| 2026-04-29 15:32 | 40.99957 | 25.25156 | 35083 ft | 493 kts | 127° |
| 2026-04-29 15:33 | 40.99735 | 25.25563 | 35051 ft | 494 kts | 126° |
| 2026-04-29 15:33 | 40.99392 | 25.26207 | 35026 ft | 494 kts | 127° |
| 2026-04-29 15:34 | 40.99193 | 25.26578 | 35015 ft | 494 kts | 128° |
| 2026-04-29 15:34 | 40.98677 | 25.27486 | 35008 ft | 494 kts | 131° |
| 2026-04-29 15:35 | 40.98319 | 25.28052 | 34991 ft | 493 kts | 135° |
| 2026-04-29 15:35 | 40.97697 | 25.28916 | 34962 ft | 492 kts | 139° |
| 2026-04-29 15:36 | 40.93717 | 25.33141 | 35019 ft | 487 kts | 143° |
| 2026-04-29 15:36 | 40.93127 | 25.33790 | 35025 ft | 487 kts | 142° |
| 2026-04-29 15:37 | 40.92869 | 25.34079 | 35028 ft | 487 kts | 142° |
| 2026-04-29 15:37 | 40.92783 | 25.34176 | 35027 ft | 487 kts | 142° |
| 2026-04-29 15:38 | 40.91435 | 25.35752 | 35045 ft | 487 kts | 140° |
| 2026-04-29 15:38 | 40.90394 | 25.37020 | 35062 ft | 487 kts | 139° |
| 2026-04-29 15:39 | 40.89737 | 25.37833 | 35072 ft | 487 kts | 139° |
| 2026-04-29 15:39 | 40.89327 | 25.38344 | 35074 ft | 487 kts | 139° |
| 2026-04-29 15:40 | 40.89151 | 25.38565 | 35075 ft | 487 kts | 139° |
| 2026-04-29 15:41 | 40.88886 | 25.38899 | 35078 ft | 487 kts | 138° |
| 2026-04-29 15:41 | 40.88876 | 25.38911 | 35077 ft | 487 kts | 138° |
| 2026-04-29 15:42 | 40.88794 | 25.39014 | 35078 ft | 487 kts | 138° |
| 2026-04-29 15:42 | 40.87800 | 25.40279 | 35082 ft | 487 kts | 138° |
| 2026-04-29 15:43 | 40.87793 | 25.40288 | 35082 ft | 487 kts | 138° |
| 2026-04-29 15:44 | 40.87251 | 25.40982 | 35080 ft | 487 kts | 138° |
| 2026-04-29 15:44 | 40.87164 | 25.41095 | 35080 ft | 487 kts | 138° |
| 2026-04-29 15:45 | 40.86829 | 25.41525 | 35082 ft | 487 kts | 138° |
| 2026-04-29 15:46 | 40.86817 | 25.41541 | 35081 ft | 487 kts | 138° |
| 2026-04-29 15:46 | 40.86229 | 25.42296 | 35084 ft | 487 kts | 138° |
| 2026-04-29 15:47 | 40.86081 | 25.42486 | 35086 ft | 487 kts | 138° |
| 2026-04-29 15:47 | 40.85900 | 25.42720 | 35085 ft | 487 kts | 138° |
| 2026-04-29 15:48 | 40.85631 | 25.43065 | 35089 ft | 487 kts | 138° |
| 2026-04-29 15:48 | 40.85269 | 25.43533 | 35088 ft | 487 kts | 137° |
| 2026-04-29 15:49 | 40.81783 | 25.48022 | 35083 ft | 487 kts | 138° |
| 2026-04-29 15:49 | 40.76906 | 25.54256 | 35079 ft | 488 kts | 138° |
| 2026-04-29 15:50 | 40.72003 | 25.60492 | 35080 ft | 490 kts | 138° |
| 2026-04-29 15:50 | 40.67085 | 25.66727 | 35064 ft | 491 kts | 138° |
| 2026-04-29 15:51 | 40.62161 | 25.72959 | 35076 ft | 491 kts | 138° |
| 2026-04-29 15:51 | 40.57228 | 25.79191 | 35080 ft | 492 kts | 138° |
| 2026-04-29 15:52 | 40.52287 | 25.85421 | 35077 ft | 492 kts | 138° |
| 2026-04-29 15:52 | 40.47461 | 25.91891 | 35072 ft | 493 kts | 133° |
| 2026-04-29 15:53 | 40.42931 | 25.98733 | 35070 ft | 493 kts | 132° |
| 2026-04-29 15:53 | 40.38452 | 26.05536 | 35069 ft | 492 kts | 132° |
| 2026-04-29 15:54 | 40.33949 | 26.12277 | 35063 ft | 490 kts | 133° |
| 2026-04-29 15:54 | 40.29442 | 26.18972 | 35063 ft | 489 kts | 133° |
| 2026-04-29 15:55 | 40.24942 | 26.25641 | 35074 ft | 488 kts | 133° |
| 2026-04-29 15:55 | 40.20448 | 26.32293 | 35075 ft | 487 kts | 133° |
| 2026-04-29 15:56 | 40.15961 | 26.38922 | 35076 ft | 486 kts | 133° |
| 2026-04-29 15:56 | 40.11394 | 26.45454 | 35079 ft | 485 kts | 136° |
| 2026-04-29 15:57 | 40.06578 | 26.51611 | 35052 ft | 484 kts | 137° |
| 2026-04-29 15:57 | 40.01725 | 26.57707 | 35057 ft | 484 kts | 137° |
| 2026-04-29 15:58 | 39.96895 | 26.63845 | 35072 ft | 484 kts | 137° |
| 2026-04-29 15:58 | 39.92111 | 26.69954 | 35066 ft | 485 kts | 137° |
| 2026-04-29 15:59 | 39.87284 | 26.76109 | 35066 ft | 486 kts | 137° |
| 2026-04-29 15:59 | 39.82445 | 26.82263 | 35055 ft | 486 kts | 137° |
| 2026-04-29 16:00 | 39.77600 | 26.88410 | 35067 ft | 487 kts | 137° |
| 2026-04-29 16:00 | 39.72711 | 26.94503 | 35047 ft | 487 kts | 138° |
| 2026-04-29 16:01 | 39.67779 | 27.00532 | 35055 ft | 487 kts | 138° |
| 2026-04-29 16:01 | 39.62854 | 27.06557 | 35050 ft | 486 kts | 138° |
| 2026-04-29 16:02 | 39.57938 | 27.12577 | 35047 ft | 485 kts | 138° |
| 2026-04-29 16:02 | 39.53032 | 27.18577 | 35054 ft | 485 kts | 138° |
| 2026-04-29 16:03 | 39.48249 | 27.24728 | 35059 ft | 485 kts | 131° |
| 2026-04-29 16:03 | 39.44695 | 27.30404 | 35065 ft | 484 kts | 129° |
| 2026-04-29 16:04 | 39.40495 | 27.37209 | 35075 ft | 483 kts | 130° |
| 2026-04-29 16:04 | 39.36252 | 27.43860 | 35062 ft | 483 kts | 131° |
| 2026-04-29 16:05 | 39.31957 | 27.50536 | 35069 ft | 483 kts | 131° |
| 2026-04-29 16:05 | 39.27632 | 27.57255 | 35054 ft | 483 kts | 131° |
| 2026-04-29 16:06 | 39.23336 | 27.63921 | 35048 ft | 483 kts | 131° |
| 2026-04-29 16:06 | 39.19044 | 27.70570 | 35060 ft | 482 kts | 131° |
| 2026-04-29 16:07 | 39.14745 | 27.77214 | 35057 ft | 482 kts | 131° |
| 2026-04-29 16:07 | 39.10447 | 27.83846 | 35045 ft | 482 kts | 131° |
| 2026-04-29 16:08 | 39.06145 | 27.90463 | 35049 ft | 482 kts | 131° |
| 2026-04-29 16:08 | 39.01838 | 27.97068 | 35057 ft | 481 kts | 131° |
| 2026-04-29 16:09 | 38.97522 | 28.03678 | 35044 ft | 482 kts | 131° |
| 2026-04-29 16:09 | 38.93213 | 28.10264 | 35041 ft | 481 kts | 131° |
| 2026-04-29 16:10 | 38.88903 | 28.16840 | 35045 ft | 481 kts | 131° |
| 2026-04-29 16:10 | 38.84594 | 28.23400 | 35034 ft | 481 kts | 131° |
| 2026-04-29 16:11 | 38.80270 | 28.29970 | 35034 ft | 481 kts | 131° |
| 2026-04-29 16:11 | 38.75886 | 28.36617 | 35038 ft | 481 kts | 131° |
| 2026-04-29 16:12 | 38.71565 | 28.43155 | 35031 ft | 481 kts | 131° |